Time;durP1;ratioP1;P1;durP2;ratioP2;P2;SDS_P1;SDS_P2;PMS_P1;PMS_P2;Temp;Humidity;BMP_temperature;BMP_pressure;BME280_temperature;BME280_humidity;BME280_pressure;Samples;Min_cycle;Max_cycle;Signal;HPM_P1;HPM_P2
2020/12/29 00:01:45;;;;;;;15.70;11.68;;;;;;;3.15;79.54;94899.28;1745849;82;21122;-55
2020/12/29 00:04:19;;;;;;;14.05;9.45;;;;;;;3.19;79.23;94932.77;1753046;80;21363;-56
2020/12/29 00:06:51;;;;;;;10.35;7.67;;;;;;;3.20;79.09;94905.38;1778870;79;21068;-56
2020/12/29 00:09:24;;;;;;;12.45;8.10;;;;;;;3.22;79.20;94915.88;1782317;80;21620;-55
2020/12/29 00:11:55;;;;;;;10.75;8.45;;;;;;;3.27;79.06;94921.53;1751612;79;21242;-55
2020/12/29 00:14:23;;;;;;;10.50;7.75;;;;;;;3.30;78.93;94920.48;1752598;80;21032;-55
2020/12/29 00:16:52;;;;;;;11.33;7.95;;;;;;;3.29;78.83;94905.58;1772503;80;21196;-55
2020/12/29 00:19:23;;;;;;;11.80;8.27;;;;;;;3.32;78.77;94907.09;1782784;79;21154;-55
2020/12/29 00:21:51;;;;;;;11.12;8.43;;;;;;;3.35;78.62;94909.45;1774765;79;21154;-55
2020/12/29 00:24:19;;;;;;;11.93;8.08;;;;;;;3.35;78.59;94897.91;1768253;79;21153;-55
2020/12/29 00:26:48;;;;;;;10.60;8.38;;;;;;;3.36;78.48;94901.31;1778782;80;21191;-55
2020/12/29 00:29:16;;;;;;;11.63;8.28;;;;;;;3.34;78.36;94905.27;1782672;80;21196;-55
2020/12/29 00:31:44;;;;;;;14.87;8.65;;;;;;;3.34;78.24;94906.98;1782363;79;26496;-55
2020/12/29 00:34:13;;;;;;;9.00;7.55;;;;;;;3.34;78.18;94903.98;1782781;80;21061;-55
2020/12/29 00:36:41;;;;;;;9.73;7.67;;;;;;;3.39;77.99;94913.45;1780645;79;21127;-55
2020/12/29 00:39:09;;;;;;;9.30;7.40;;;;;;;3.41;77.71;94900.06;1782777;79;21120;-55
2020/12/29 00:41:40;;;;;;;10.55;7.58;;;;;;;3.40;77.50;94892.47;1780327;79;20996;-55
2020/12/29 00:44:07;;;;;;;10.45;8.48;;;;;;;3.36;77.43;94890.59;1782557;80;21076;-55
2020/12/29 00:46:35;;;;;;;9.80;7.80;;;;;;;3.34;77.31;94895.45;1782710;79;21506;-55
2020/12/29 00:49:04;;;;;;;9.93;6.90;;;;;;;3.32;77.26;94898.12;1763766;79;21294;-55
2020/12/29 00:51:32;;;;;;;12.77;8.10;;;;;;;3.31;77.18;94877.27;1792538;79;21246;-55
2020/12/29 00:54:02;;;;;;;10.15;7.58;;;;;;;3.23;77.41;94861.13;1782290;79;22065;-55
2020/12/29 00:56:33;;;;;;;11.60;7.50;;;;;;;3.16;77.47;94878.31;1785974;79;21151;-55
2020/12/29 00:59:01;;;;;;;11.48;6.72;;;;;;;3.14;77.33;94872.00;1791116;79;21103;-55
2020/12/29 01:01:30;;;;;;;10.00;7.58;;;;;;;3.11;77.13;94864.08;1790416;80;21593;-55
2020/12/29 01:04:14;;;;;;;9.87;7.13;;;;;;;3.14;77.12;94856.63;1855212;76;25969;-55
2020/12/29 01:06:42;;;;;;;9.68;7.17;;;;;;;3.06;77.08;94854.62;1840396;77;21461;-55
2020/12/29 01:09:12;;;;;;;10.45;7.28;;;;;;;3.04;77.23;94838.97;1859795;77;21137;-55
2020/12/29 01:11:41;;;;;;;8.73;6.25;;;;;;;3.01;77.34;94840.02;1812896;77;26038;-55
2020/12/29 01:14:09;;;;;;;;;;;;;;;3.01;77.49;94846.43;1767056;80;21116;-55
2020/12/29 01:16:39;;;;;;;8.75;6.67;;;;;;;3.00;77.49;94839.66;1789195;79;20510;-56
2020/12/29 01:19:07;;;;;;;9.53;7.22;;;;;;;3.01;77.61;94831.05;1733512;81;21029;-56
2020/12/29 01:21:34;;;;;;;12.03;8.25;;;;;;;3.02;77.64;94818.58;1771084;79;22773;-56
2020/12/29 01:24:02;;;;;;;11.83;8.15;;;;;;;3.03;77.69;94820.70;1812259;78;20946;-57
2020/12/29 01:26:30;;;;;;;11.97;8.58;;;;;;;3.07;77.67;94822.11;1771631;80;21183;-56
2020/12/29 01:28:57;;;;;;;14.65;8.40;;;;;;;3.09;77.65;94811.28;1762992;81;21176;-56
2020/12/29 01:31:27;;;;;;;14.40;8.85;;;;;;;3.11;77.74;94811.55;1774264;80;21562;-56
2020/12/29 01:33:55;;;;;;;12.10;8.15;;;;;;;3.17;77.78;94792.35;1794011;78;21368;-56
2020/12/29 01:36:23;;;;;;;14.28;9.33;;;;;;;3.19;77.80;94773.86;1801443;78;21078;-56
2020/12/29 01:38:52;;;;;;;12.43;9.03;;;;;;;3.16;77.78;94776.64;1787047;80;21201;-56
2020/12/29 01:41:20;;;;;;;11.90;8.15;;;;;;;3.11;77.82;94763.33;1779748;80;21144;-55
2020/12/29 01:43:49;;;;;;;13.45;9.05;;;;;;;3.04;78.02;94771.91;1772203;80;21133;-56
2020/12/29 01:46:17;;;;;;;;;;;;;;;3.02;78.19;94764.77;1792883;78;21190;-56
2020/12/29 01:48:44;;;;;;;11.80;8.40;;;;;;;3.03;78.38;94768.17;1781435;80;20499;-56
2020/12/29 01:51:13;;;;;;;11.18;8.10;;;;;;;3.03;78.40;94775.39;1808771;78;21079;-56
2020/12/29 01:53:41;;;;;;;11.30;8.28;;;;;;;3.03;78.39;94788.20;1791030;78;21441;-56
2020/12/29 01:56:10;;;;;;;10.70;7.58;;;;;;;3.04;78.34;94796.70;1790082;80;21133;-57
2020/12/29 01:58:39;;;;;;;12.30;7.70;;;;;;;3.08;78.13;94798.14;1825865;78;21637;-56
2020/12/29 02:01:08;;;;;;;10.63;7.80;;;;;;;3.12;77.94;94797.82;1766632;80;21152;-56
2020/12/29 02:03:38;;;;;;;12.43;7.58;;;;;;;3.16;77.67;94795.86;1716731;79;21155;-54
2020/12/29 02:06:06;;;;;;;14.43;9.33;;;;;;;3.19;77.59;94811.03;1797075;79;28443;-55
2020/12/29 02:08:34;;;;;;;13.43;9.15;;;;;;;3.25;77.27;94799.52;1771432;79;21166;-56
2020/12/29 02:11:02;;;;;;;15.65;10.28;;;;;;;3.26;76.94;94782.75;1780127;78;23586;-55
2020/12/29 02:13:41;;;;;;;16.75;9.05;;;;;;;3.28;76.46;94777.52;1802551;78;21594;-55
2020/12/29 02:16:09;;;;;;;13.78;9.80;;;;;;;3.26;76.27;94764.00;1790253;78;21130;-56
2020/12/29 02:18:37;;;;;;;14.95;8.85;;;;;;;3.23;76.11;94748.83;1790308;80;21581;-55
2020/12/29 02:21:05;;;;;;;31.02;9.58;;;;;;;3.24;76.27;94731.22;1796364;78;21640;-55
2020/12/29 02:23:33;;;;;;;11.45;8.08;;;;;;;3.29;76.28;94729.98;1798119;78;21143;-55
2020/12/29 02:26:01;;;;;;;16.30;8.20;;;;;;;3.33;76.27;94729.30;1778422;79;21527;-54
2020/12/29 02:28:29;;;;;;;12.95;7.95;;;;;;;3.40;76.17;94715.09;1788048;80;21151;-55
2020/12/29 02:30:57;;;;;;;11.45;7.08;;;;;;;3.51;75.87;94695.11;1822709;78;21037;-55
2020/12/29 02:33:24;;;;;;;8.28;6.50;;;;;;;3.59;75.31;94668.91;1759188;80;21084;-55
2020/12/29 02:35:52;;;;;;;10.30;7.20;;;;;;;3.60;74.68;94675.66;1787050;79;22859;-56
2020/12/29 02:38:24;;;;;;;12.30;7.58;;;;;;;3.37;74.15;94671.77;1769989;80;21157;-56
2020/12/29 02:40:52;;;;;;;9.10;7.00;;;;;;;3.01;74.99;94682.45;1768681;80;21511;-57
2020/12/29 02:43:19;;;;;;;9.93;6.65;;;;;;;2.67;76.15;94686.09;1787609;80;21543;-56
2020/12/29 02:45:47;;;;;;;7.65;6.22;;;;;;;2.47;76.96;94680.27;1781898;78;21605;-56
2020/12/29 02:48:14;;;;;;;12.53;6.87;;;;;;;2.37;77.34;94681.36;1779213;80;21305;-55
2020/12/29 02:50:42;;;;;;;8.45;5.78;;;;;;;2.32;77.65;94675.27;1774429;80;21146;-56
2020/12/29 02:53:10;;;;;;;9.25;6.25;;;;;;;2.33;77.83;94687.59;1751886;80;21116;-56
2020/12/29 02:55:38;;;;;;;17.27;7.08;;;;;;;2.38;77.89;94695.34;1786581;80;21128;-56
2020/12/29 02:58:05;;;;;;;9.65;6.83;;;;;;;2.44;77.97;94696.64;1790211;79;21474;-56
2020/12/29 03:00:33;;;;;;;18.25;6.72;;;;;;;2.52;77.83;94697.41;1785787;79;22570;-56
2020/12/29 03:03:01;;;;;;;9.33;5.90;;;;;;;2.62;77.55;94695.03;1729214;82;21105;-56
2020/12/29 03:05:28;;;;;;;7.80;5.75;;;;;;;2.70;77.40;94676.11;1791227;80;21120;-55
2020/12/29 03:07:56;;;;;;;7.53;5.65;;;;;;;2.78;77.09;94667.42;1753319;80;21164;-56
2020/12/29 03:10:23;;;;;;;9.50;6.10;;;;;;;2.79;77.11;94666.95;1792458;79;22087;-56
2020/12/29 03:12:51;;;;;;;16.52;5.60;;;;;;;2.74;77.17;94666.80;1787312;80;21209;-56
2020/12/29 03:15:19;;;;;;;8.67;5.37;;;;;;;2.72;77.24;94675.53;1785667;80;21112;-55
2020/12/29 03:17:47;;;;;;;11.88;5.62;;;;;;;2.71;77.36;94681.56;1784836;80;21145;-54
2020/12/29 03:20:15;;;;;;;34.60;7.87;;;;;;;2.78;77.45;94684.07;1785629;80;21078;-56
2020/12/29 03:22:43;;;;;;;21.43;7.20;;;;;;;2.84;77.27;94690.02;1760184;80;21065;-56
2020/12/29 03:25:11;;;;;;;22.22;6.67;;;;;;;2.90;77.06;94674.70;1765647;79;23551;-56
2020/12/29 03:27:39;;;;;;;33.20;7.67;;;;;;;2.88;76.92;94673.53;1736828;81;26247;-56
2020/12/29 03:30:07;;;;;;;26.00;7.37;;;;;;;2.86;76.97;94686.08;1761185;80;21133;-56
2020/12/29 03:32:35;;;;;;;15.88;5.75;;;;;;;2.88;77.07;94669.69;1786503;80;21070;-56
2020/12/29 03:35:03;;;;;;;18.45;6.50;;;;;;;2.90;77.03;94677.27;1786628;80;21808;-58
2020/12/29 03:37:31;;;;;;;20.37;6.92;;;;;;;2.85;77.00;94678.86;1770852;79;21215;-56
2020/12/29 03:39:59;;;;;;;13.35;5.97;;;;;;;2.81;77.10;94680.46;1793161;80;26491;-56
2020/12/29 03:42:29;;;;;;;7.33;5.28;;;;;;;2.84;77.09;94696.90;1757685;80;21153;-56
2020/12/29 03:44:57;;;;;;;8.20;5.10;;;;;;;2.87;76.93;94684.69;1728147;82;21180;-56
2020/12/29 03:47:26;;;;;;;7.17;5.80;;;;;;;2.91;76.88;94686.56;1774081;80;21458;-56
2020/12/29 03:49:54;;;;;;;8.73;5.42;;;;;;;2.95;76.59;94685.44;1774432;80;21211;-56
2020/12/29 03:52:22;;;;;;;12.43;5.95;;;;;;;2.92;76.59;94688.21;1773807;79;21076;-56
2020/12/29 03:54:50;;;;;;;12.18;5.67;;;;;;;2.90;76.54;94686.23;1771466;80;21167;-56
2020/12/29 03:57:19;;;;;;;18.30;6.65;;;;;;;2.86;76.62;94692.04;1770624;80;21121;-56
2020/12/29 03:59:46;;;;;;;18.62;6.60;;;;;;;2.86;76.67;94684.80;1793086;80;21145;-56
2020/12/29 04:02:14;;;;;;;12.65;6.00;;;;;;;2.85;76.65;94667.81;1756338;81;23617;-56
2020/12/29 04:04:42;;;;;;;47.75;9.73;;;;;;;2.78;76.76;94675.55;1786581;79;21108;-56
2020/12/29 04:07:09;;;;;;;39.38;8.90;;;;;;;2.70;76.98;94670.52;1776605;79;21081;-56
2020/12/29 04:09:37;;;;;;;37.25;8.65;;;;;;;2.74;77.07;94671.92;1785590;80;21184;-56
2020/12/29 04:12:05;;;;;;;19.42;6.70;;;;;;;2.86;77.09;94673.27;1789465;79;21061;-57
2020/12/29 04:14:33;;;;;;;18.20;6.55;;;;;;;2.97;76.71;94669.95;1789311;80;21378;-56
2020/12/29 04:17:00;;;;;;;6.00;5.10;;;;;;;3.02;76.43;94674.28;1792654;80;21121;-56
2020/12/29 04:19:28;;;;;;;8.48;5.17;;;;;;;3.08;76.00;94665.70;1793039;80;21125;-56
2020/12/29 04:21:56;;;;;;;12.73;4.83;;;;;;;3.16;75.70;94664.31;1760988;81;21164;-56
2020/12/29 04:24:24;;;;;;;8.38;4.78;;;;;;;3.22;75.28;94669.81;1762531;80;21159;-57
2020/12/29 04:26:52;;;;;;;5.25;4.20;;;;;;;3.30;75.00;94654.70;1736053;81;21201;-56
2020/12/29 04:29:20;;;;;;;12.18;5.30;;;;;;;3.36;74.66;94647.05;1759386;80;21135;-56
2020/12/29 04:31:48;;;;;;;17.90;5.65;;;;;;;3.39;74.25;94631.89;1785234;80;21136;-56
2020/12/29 04:34:15;;;;;;;22.32;6.25;;;;;;;3.39;73.40;94607.09;1778692;78;21104;-56
2020/12/29 04:36:43;;;;;;;18.67;5.20;;;;;;;3.64;72.96;94610.39;1792854;78;21482;-56
2020/12/29 04:39:10;;;;;;;10.45;3.75;;;;;;;3.83;72.13;94601.67;1793102;79;21127;-57
2020/12/29 04:41:39;;;;;;;10.23;3.92;;;;;;;4.00;71.39;94593.16;1791263;78;21537;-56
2020/12/29 04:44:07;;;;;;;6.97;3.98;;;;;;;4.19;71.32;94593.39;1774377;80;26447;-56
2020/12/29 04:46:35;;;;;;;3.92;3.27;;;;;;;4.39;70.31;94593.56;1791554;80;21046;-56
2020/12/29 04:49:03;;;;;;;4.33;3.72;;;;;;;4.46;70.10;94578.49;1759838;79;21723;-56
2020/12/29 04:51:31;;;;;;;3.98;2.83;;;;;;;4.51;69.97;94584.11;1760042;80;21711;-56
2020/12/29 04:53:59;;;;;;;3.40;2.90;;;;;;;4.59;69.44;94589.45;1725153;80;21597;-57
2020/12/29 04:56:33;;;;;;;21.52;4.33;;;;;;;4.68;68.82;94599.47;1792999;79;21163;-57
2020/12/29 04:59:03;;;;;;;8.00;3.00;;;;;;;4.75;68.96;94590.33;1765098;80;21482;-55
2020/12/29 05:01:33;;;;;;;9.43;2.62;;;;;;;4.91;68.24;94591.22;1773710;80;21125;-55
2020/12/29 05:04:02;;;;;;;9.58;2.58;;;;;;;5.08;67.42;94582.14;1767653;80;21320;-56
2020/12/29 05:06:30;;;;;;;2.70;1.92;;;;;;;5.37;66.74;94579.77;1785269;79;21136;-56
2020/12/29 05:08:57;;;;;;;2.75;1.82;;;;;;;5.60;66.08;94593.80;1798480;79;21139;-55
2020/12/29 05:11:25;;;;;;;4.47;2.02;;;;;;;5.77;65.58;94582.09;1792072;79;21065;-55
2020/12/29 05:13:53;;;;;;;3.83;1.60;;;;;;;5.92;64.91;94578.25;1779187;79;21069;-55
2020/12/29 05:16:21;;;;;;;1.77;1.62;;;;;;;6.03;64.74;94578.16;1789316;80;21485;-55
2020/12/29 05:18:48;;;;;;;1.92;1.50;;;;;;;6.14;64.62;94592.72;1739378;81;21139;-56
2020/12/29 05:21:17;;;;;;;1.70;1.07;;;;;;;6.25;63.93;94573.80;1733975;81;21179;-55
2020/12/29 05:23:45;;;;;;;1.20;1.10;;;;;;;6.46;63.71;94609.75;1730498;80;21509;-57
2020/12/29 05:26:13;;;;;;;1.55;1.05;;;;;;;6.73;63.24;94601.89;1726474;81;21048;-56
2020/12/29 05:28:40;;;;;;;0.78;0.75;;;;;;;6.98;62.87;94608.28;1755012;81;21646;-56
2020/12/29 05:31:08;;;;;;;1.20;1.10;;;;;;;7.18;62.49;94637.47;1787158;79;21141;-57
2020/12/29 05:33:36;;;;;;;0.65;0.45;;;;;;;7.40;62.33;94611.05;1781912;79;21597;-56
2020/12/29 05:36:04;;;;;;;0.53;0.53;;;;;;;7.62;61.54;94634.48;1767611;80;21168;-56
2020/12/29 05:38:32;;;;;;;0.60;0.60;;;;;;;7.78;61.36;94620.98;1790185;80;21053;-56
2020/12/29 05:41:00;;;;;;;1.05;0.55;;;;;;;7.86;61.29;94623.22;1760651;80;21196;-56
2020/12/29 05:43:32;;;;;;;1.00;0.98;;;;;;;7.97;60.92;94603.34;1742851;81;21130;-56
2020/12/29 05:46:01;;;;;;;2.90;2.60;;;;;;;8.04;61.20;94612.14;1731972;81;21588;-56
2020/12/29 05:48:28;;;;;;;3.47;1.77;;;;;;;7.99;61.26;94609.98;1780960;79;21100;-55
2020/12/29 05:50:56;;;;;;;4.90;3.90;;;;;;;7.99;61.02;94593.67;1784834;79;21171;-55
2020/12/29 05:53:23;;;;;;;1.72;1.10;;;;;;;8.01;60.89;94594.34;1711523;82;21396;-55
2020/12/29 05:55:53;;;;;;;1.37;1.27;;;;;;;8.01;60.67;94565.94;1717300;82;21087;-55
2020/12/29 05:58:20;;;;;;;1.87;1.60;;;;;;;8.05;60.74;94559.05;1733896;80;28173;-55
2020/12/29 06:00:48;;;;;;;3.77;1.37;;;;;;;8.09;60.55;94568.62;1738406;80;21140;-55
2020/12/29 06:03:16;;;;;;;0.78;0.78;;;;;;;8.11;60.58;94572.70;1767641;80;21159;-56
2020/12/29 06:05:44;;;;;;;0.62;0.62;;;;;;;8.15;60.34;94571.93;1790342;78;22139;-56
2020/12/29 06:08:12;;;;;;;1.65;1.10;;;;;;;8.17;60.30;94560.16;1789480;80;21160;-56
2020/12/29 06:10:40;;;;;;;0.88;0.70;;;;;;;8.15;60.68;94562.89;1758545;80;21118;-56
2020/12/29 06:13:07;;;;;;;1.70;1.52;;;;;;;8.12;60.41;94564.46;1790893;79;21192;-55
2020/12/29 06:15:37;;;;;;;2.93;2.63;;;;;;;8.11;60.79;94564.95;1830899;78;21485;-56
2020/12/29 06:18:09;;;;;;;3.22;1.40;;;;;;;8.11;60.64;94555.91;1827847;78;21360;-56
2020/12/29 06:20:41;;;;;;;0.70;0.70;;;;;;;8.11;61.01;94554.62;1822390;78;21204;-56
2020/12/29 06:23:09;;;;;;;7.20;2.37;;;;;;;8.10;60.33;94549.11;1794657;78;21117;-56
2020/12/29 06:25:37;;;;;;;1.77;1.67;;;;;;;8.10;60.21;94550.39;1757429;81;21133;-55
2020/12/29 06:28:06;;;;;;;2.87;2.55;;;;;;;8.10;60.25;94571.55;1790790;78;21538;-56
2020/12/29 06:30:34;;;;;;;2.45;1.77;;;;;;;8.14;60.31;94587.11;1790225;80;22244;-55
2020/12/29 06:33:07;;;;;;;4.50;2.90;;;;;;;8.17;59.88;94599.72;1790138;78;21069;-56
2020/12/29 06:35:36;;;;;;;3.33;1.30;;;;;;;8.18;59.39;94613.47;1756007;80;21071;-56
2020/12/29 06:38:24;;;;;;;5.20;4.40;;;;;;;8.21;59.55;94628.69;1737513;79;21096;-57
2020/12/29 06:40:52;;;;;;;4.28;2.80;;;;;;;8.23;59.71;94631.45;1724985;80;21077;-56
2020/12/29 06:43:21;;;;;;;6.22;5.00;;;;;;;8.26;60.00;94621.33;1786406;80;21454;-56
2020/12/29 06:45:49;;;;;;;2.92;1.82;;;;;;;8.24;60.89;94616.75;1768996;78;21931;-55
2020/12/29 06:48:20;;;;;;;4.35;1.45;;;;;;;8.17;61.29;94629.42;1743053;80;21224;-58
2020/12/29 06:50:50;;;;;;;4.53;2.90;;;;;;;8.11;61.92;94614.52;1789966;80;21164;-57
2020/12/29 06:53:18;;;;;;;6.20;2.83;;;;;;;8.01;62.29;94644.25;1790087;78;21122;-57
2020/12/29 06:55:47;;;;;;;1.50;1.40;;;;;;;7.92;62.65;94623.12;1790688;79;21210;-57
2020/12/29 06:58:33;;;;;;;15.38;11.12;;;;;;;7.84;62.68;94562.34;1790782;78;21172;-58
2020/12/29 07:01:24;;;;;;;10.25;6.65;;;;;;;7.76;62.62;94572.06;1781070;80;21061;-56
2020/12/29 07:04:06;;;;;;;6.50;5.55;;;;;;;7.76;62.31;94568.68;1772460;80;21108;-57
2020/12/29 07:06:36;;;;;;;11.08;7.62;;;;;;;7.76;62.73;94596.59;1777190;80;21062;-56
2020/12/29 07:09:27;;;;;;;5.17;4.15;;;;;;;7.73;62.71;94584.80;1733178;81;21508;-57
2020/12/29 07:12:07;;;;;;;9.23;3.75;;;;;;;7.71;62.00;94591.88;1792142;79;21495;-57
2020/12/29 07:14:37;;;;;;;11.55;3.52;;;;;;;7.73;60.61;94596.41;1780807;80;21208;-56
2020/12/29 07:17:06;;;;;;;10.28;7.37;;;;;;;7.86;59.62;94625.80;1753150;80;21093;-56
2020/12/29 07:19:40;;;;;;;4.90;3.12;;;;;;;8.02;59.53;94651.52;1755832;80;21076;-56
2020/12/29 07:22:19;;;;;;;14.13;7.17;;;;;;;8.13;59.42;94666.84;1752766;80;21403;-57
2020/12/29 07:24:47;;;;;;;6.90;5.10;;;;;;;8.22;60.34;94650.97;1766954;80;21184;-56
2020/12/29 07:27:21;;;;;;;7.78;6.05;;;;;;;8.22;60.91;94693.59;1782990;80;21161;-57
2020/12/29 07:29:58;;;;;;;4.72;4.22;;;;;;;8.14;61.74;94693.48;1758775;79;21164;-56
2020/12/29 07:32:28;;;;;;;3.30;3.10;;;;;;;8.07;61.98;94687.58;1774846;78;21599;-57
2020/12/29 07:34:59;;;;;;;5.37;4.80;;;;;;;8.03;62.61;94697.86;1746900;80;22281;-57
2020/12/29 07:37:30;;;;;;;2.65;2.45;;;;;;;8.07;62.62;94715.98;1781043;80;21576;-56
2020/12/29 07:39:59;;;;;;;5.50;5.00;;;;;;;8.19;61.33;94719.25;1821215;78;21113;-56
2020/12/29 07:42:27;;;;;;;6.03;5.42;;;;;;;8.23;61.17;94690.88;1821399;78;21200;-57
2020/12/29 07:44:56;;;;;;;6.25;3.00;;;;;;;8.23;60.82;94729.63;1757767;80;21097;-56
2020/12/29 07:47:24;;;;;;;4.95;4.50;;;;;;;8.43;60.08;94711.52;1791085;80;21133;-56
2020/12/29 07:49:54;;;;;;;2.80;2.60;;;;;;;8.93;58.77;94727.16;1795149;79;21094;-55
2020/12/29 07:52:27;;;;;;;1.73;1.63;;;;;;;9.36;57.28;94712.28;1788538;79;21183;-56
2020/12/29 07:55:09;;;;;;;4.47;4.08;;;;;;;9.50;56.74;94738.12;1761972;81;21288;-56
2020/12/29 07:57:37;;;;;;;5.15;2.35;;;;;;;9.41;56.59;94731.27;1776067;79;21228;-57
2020/12/29 08:00:16;;;;;;;1.50;1.40;;;;;;;9.33;56.03;94753.18;1785373;79;21380;-56
2020/12/29 08:02:52;;;;;;;1.98;1.82;;;;;;;9.23;56.37;94780.86;1785035;80;21581;-55
2020/12/29 08:05:22;;;;;;;2.10;2.00;;;;;;;9.08;56.84;94762.42;1771496;80;21129;-56
2020/12/29 08:07:59;;;;;;;2.42;1.90;;;;;;;8.89;56.53;94763.34;1793396;79;21132;-56
2020/12/29 08:10:45;;;;;;;1.05;0.95;;;;;;;8.74;56.27;94766.38;1793520;80;21152;-55
2020/12/29 08:13:23;;;;;;;2.62;1.47;;;;;;;8.62;56.05;94768.82;1793361;80;21371;-58
2020/12/29 08:15:57;;;;;;;2.83;2.55;;;;;;;8.55;55.54;94796.17;1792913;79;21501;-56
2020/12/29 08:18:25;;;;;;;3.52;3.20;;;;;;;8.51;55.71;94797.42;1793293;79;21517;-57
2020/12/29 08:20:57;;;;;;;2.22;2.02;;;;;;;8.47;56.03;94799.47;1784585;80;21125;-55
2020/12/29 08:23:28;;;;;;;1.50;1.40;;;;;;;8.42;55.98;94783.05;1785806;80;21073;-57
2020/12/29 08:26:00;;;;;;;4.25;3.85;;;;;;;8.38;56.54;94771.34;1754562;81;22152;-56
2020/12/29 08:28:30;;;;;;;5.05;4.60;;;;;;;8.31;56.57;94756.08;1754452;81;21156;-56
2020/12/29 08:31:04;;;;;;;1.52;1.07;;;;;;;8.26;56.27;94810.74;1754526;81;21140;-57
2020/12/29 08:33:32;;;;;;;2.47;1.60;;;;;;;8.23;57.15;94814.09;1754506;81;21072;-58
2020/12/29 08:36:04;;;;;;;2.37;2.10;;;;;;;8.14;57.01;94820.90;1754461;81;21607;-57
2020/12/29 08:38:45;;;;;;;7.30;6.58;;;;;;;8.08;57.33;94808.03;1729087;81;21389;-56
2020/12/29 08:41:21;;;;;;;3.50;3.12;;;;;;;8.05;56.83;94813.95;1754554;81;21085;-56
2020/12/29 08:43:53;;;;;;;4.17;3.25;;;;;;;8.21;55.35;94812.93;1754489;81;21175;-57
2020/12/29 08:46:23;;;;;;;3.47;3.17;;;;;;;8.99;51.87;94809.38;1754468;81;21068;-57
2020/12/29 08:49:04;;;;;;;5.10;4.30;;;;;;;10.02;46.91;94778.11;1759014;80;21481;-56
2020/12/29 08:51:45;;;;;;;2.30;2.10;;;;;;;10.79;43.13;94799.08;1792963;79;21622;-57
2020/12/29 08:54:15;;;;;;;1.85;1.42;;;;;;;11.46;42.44;94777.64;1777954;80;21074;-56
2020/12/29 08:56:45;;;;;;;2.08;1.10;;;;;;;11.98;41.03;94781.84;1793338;80;21094;-57
2020/12/29 08:59:19;;;;;;;2.27;2.00;;;;;;;12.45;39.32;94748.66;1777800;80;21065;-56
2020/12/29 09:01:56;;;;;;;1.32;0.78;;;;;;;12.41;39.40;94792.89;1777971;80;21632;-56
2020/12/29 09:04:34;;;;;;;0.78;0.55;;;;;;;12.31;39.11;94761.85;1793224;79;21368;-58
2020/12/29 09:07:09;;;;;;;1.50;0.70;;;;;;;12.57;39.47;94777.77;1797735;78;21061;-58
2020/12/29 09:09:54;;;;;;;1.95;0.60;;;;;;;12.93;38.45;94769.06;1798773;79;21546;-55
2020/12/29 09:12:35;;;;;;;0.93;0.90;;;;;;;13.11;37.79;94777.12;1820940;78;21077;-57
2020/12/29 09:15:05;;;;;;;;;;;;;;;13.13;37.07;94770.78;1775821;79;21474;-55
2020/12/29 09:17:39;;;;;;;0.80;0.75;;;;;;;13.07;37.12;94772.28;1820911;78;22141;-57
2020/12/29 09:20:19;;;;;;;3.02;0.70;;;;;;;13.27;36.50;94717.16;1773767;79;21544;-56
2020/12/29 09:23:10;;;;;;;2.65;0.50;;;;;;;13.52;36.16;94765.26;1799117;79;21056;-56
2020/12/29 09:25:45;;;;;;;2.62;1.30;;;;;;;13.42;35.86;94745.45;1765891;81;21167;-57
2020/12/29 09:28:20;;;;;;;2.22;1.45;;;;;;;13.46;35.70;94757.64;1799173;79;21039;-56
2020/12/29 09:33:43;;;;;;;1.10;0.80;;;;;;;13.64;34.75;94761.30;1909094;74;22617;-56
2020/12/29 09:38:59;;;;;;;0.60;0.50;;;;;;;13.42;35.02;94733.73;1816658;77;22701;-56
2020/12/29 09:41:28;;;;;;;1.13;0.60;;;;;;;13.28;34.74;94761.77;1772002;79;21086;-57
2020/12/29 09:43:59;;;;;;;1.90;0.90;;;;;;;13.06;35.03;94761.53;1825867;78;21995;-56
2020/12/29 09:46:38;;;;;;;1.85;0.70;;;;;;;12.99;35.56;94748.87;1828617;78;20926;-56
2020/12/29 09:49:06;;;;;;;2.63;0.60;;;;;;;13.20;35.70;94692.30;1791592;80;21109;-57
2020/12/29 09:51:36;;;;;;;0.88;0.55;;;;;;;13.55;34.32;94719.32;1796070;79;21705;-58
2020/12/29 09:54:05;;;;;;;3.50;0.53;;;;;;;13.50;34.53;94738.57;1746908;80;21124;-58
2020/12/29 09:56:34;;;;;;;0.80;0.60;;;;;;;13.35;35.07;94731.98;1796319;80;21283;-57
2020/12/29 09:59:03;;;;;;;1.42;0.82;;;;;;;13.66;35.44;94729.86;1743027;80;21196;-56
2020/12/29 10:01:34;;;;;;;0.60;0.60;;;;;;;14.01;34.35;94715.91;1767758;80;21088;-57
2020/12/29 10:04:02;;;;;;;1.00;0.60;;;;;;;14.10;34.50;94716.98;1790740;80;21155;-55
2020/12/29 10:06:30;;;;;;;1.40;0.50;;;;;;;14.23;33.69;94714.28;1764824;80;21069;-57
2020/12/29 10:09:00;;;;;;;1.70;1.20;;;;;;;14.18;33.39;94734.36;1764729;81;22096;-56
2020/12/29 10:11:28;;;;;;;1.95;0.88;;;;;;;14.11;33.87;94706.88;1764679;81;21072;-57
2020/12/29 10:13:58;;;;;;;2.33;0.60;;;;;;;14.17;33.70;94689.19;1764585;80;21160;-57
2020/12/29 10:16:27;;;;;;;3.45;0.50;;;;;;;14.13;33.44;94700.18;1746515;81;21081;-57
2020/12/29 10:18:54;;;;;;;0.90;0.70;;;;;;;14.15;32.81;94715.95;1765122;80;21148;-59
2020/12/29 10:21:24;;;;;;;2.25;0.82;;;;;;;14.17;32.50;94701.43;1736265;81;22120;-57
2020/12/29 10:23:54;;;;;;;1.50;0.60;;;;;;;14.12;32.63;94672.47;1737195;81;21159;-58
2020/12/29 10:26:22;;;;;;;5.37;0.57;;;;;;;13.97;32.19;94639.84;1764572;81;21163;-57
2020/12/29 10:28:49;;;;;;;1.75;0.75;;;;;;;13.96;32.31;94672.11;1764616;81;21521;-57
2020/12/29 10:31:17;;;;;;;3.05;0.75;;;;;;;13.93;32.39;94659.42;1764693;81;21044;-56
2020/12/29 10:33:45;;;;;;;2.55;1.22;;;;;;;13.75;33.16;94689.23;1762677;80;21175;-55
2020/12/29 10:36:17;;;;;;;2.17;0.60;;;;;;;13.99;33.47;94729.13;1764641;81;21139;-56
2020/12/29 10:38:49;;;;;;;1.62;0.90;;;;;;;14.25;32.98;94709.19;1761317;81;21111;-56
2020/12/29 10:41:18;;;;;;;2.15;1.00;;;;;;;14.40;32.80;94741.82;1764694;81;21473;-57
2020/12/29 10:43:47;;;;;;;1.62;1.00;;;;;;;14.43;33.08;94698.42;1764632;81;21076;-57
2020/12/29 10:46:17;;;;;;;8.05;1.00;;;;;;;14.36;32.47;94685.28;1764619;81;22430;-56
2020/12/29 10:48:46;;;;;;;0.78;0.65;;;;;;;14.28;32.55;94681.95;1764427;80;21139;-56
2020/12/29 10:51:20;;;;;;;2.87;0.60;;;;;;;14.33;32.42;94665.27;1764148;81;21577;-56
2020/12/29 10:53:47;;;;;;;6.05;0.70;;;;;;;14.17;31.81;94619.28;1763766;81;21497;-57
2020/12/29 10:56:15;;;;;;;5.90;1.45;;;;;;;13.97;31.77;94587.70;1763982;81;21565;-55
2020/12/29 10:58:42;;;;;;;0.82;0.70;;;;;;;13.76;32.39;94605.33;1770594;80;21441;-56
2020/12/29 11:01:12;;;;;;;2.10;0.78;;;;;;;13.51;32.40;94647.21;1764239;81;21542;-56
2020/12/29 11:03:39;;;;;;;;;;;;;;;13.30;33.31;94647.00;1766886;80;21082;-56
2020/12/29 11:06:18;;;;;;;1.25;0.70;;;;;;;13.21;33.72;94721.77;1755385;81;21863;-57
2020/12/29 11:08:46;;;;;;;;;;;;;;;12.73;34.04;94691.04;1712950;84;21603;-56
2020/12/29 11:11:15;;;;;;;1.50;0.50;;;;;;;12.09;35.05;94700.45;1709084;84;22351;-56
2020/12/29 11:13:43;;;;;;;2.12;1.15;;;;;;;11.60;36.21;94631.08;1730962;82;21159;-55
2020/12/29 11:16:20;;;;;;;1.00;0.40;;;;;;;11.24;36.85;94666.42;1740096;82;21108;-57
2020/12/29 11:18:50;;;;;;;1.67;0.80;;;;;;;11.01;37.38;94714.22;1766408;80;21489;-54
2020/12/29 11:21:19;;;;;;;2.35;0.90;;;;;;;10.77;35.88;94696.80;1795475;79;21065;-55
2020/12/29 11:23:47;;;;;;;;;;;;;;;10.56;36.86;94730.05;1737447;82;21428;-57
2020/12/29 11:26:20;;;;;;;2.58;0.68;;;;;;;10.41;36.44;94697.40;1764110;81;28103;-55
2020/12/29 11:28:49;;;;;;;4.08;0.80;;;;;;;10.31;37.11;94712.56;1764002;81;21076;-57
2020/12/29 11:31:19;;;;;;;;;;;;;;;10.23;37.64;94679.28;1734189;81;21117;-57
2020/12/29 11:33:50;;;;;;;2.25;0.50;;;;;;;10.20;38.01;94721.88;1764172;80;20224;-57
2020/12/29 11:36:19;;;;;;;2.05;0.55;;;;;;;10.15;38.88;94699.50;1763949;81;21355;-56
2020/12/29 11:38:47;;;;;;;1.72;0.70;;;;;;;10.08;38.92;94761.48;1765754;80;21073;-56
2020/12/29 11:41:15;;;;;;;7.12;0.60;;;;;;;10.01;39.59;94722.06;1767153;81;21588;-56
2020/12/29 11:43:46;;;;;;;5.37;0.70;;;;;;;9.95;39.59;94737.25;1767199;81;21068;-57
2020/12/29 11:46:14;;;;;;;2.22;0.50;;;;;;;9.89;40.01;94656.23;1754327;81;21148;-57
2020/12/29 11:48:45;;;;;;;2.10;0.60;;;;;;;9.81;40.76;94770.15;1767650;80;21664;-56
2020/12/29 11:51:13;;;;;;;2.12;0.82;;;;;;;9.75;41.11;94761.20;1738844;82;21864;-56
2020/12/29 11:53:41;;;;;;;4.37;0.93;;;;;;;9.74;39.94;94681.06;1782705;80;21081;-57
2020/12/29 11:56:11;;;;;;;1.32;0.70;;;;;;;9.75;39.75;94743.54;1784519;80;21049;-56
2020/12/29 11:58:39;;;;;;;1.00;0.50;;;;;;;9.76;39.85;94773.17;1782577;80;21085;-58